createdAt,value
2022-11-07T00:00:29.768Z,100070.38
2022-11-07T00:02:34.245Z,100070.7
2022-11-07T00:04:38.693Z,100077.67
2022-11-07T00:06:43.026Z,100068.23
2022-11-07T00:08:47.382Z,100070.11
2022-11-07T00:10:51.697Z,100078.02
2022-11-07T00:12:56.048Z,100080.44
2022-11-07T00:15:00.400Z,100080.54
2022-11-07T00:17:04.700Z,100073.75
2022-11-07T00:19:09.122Z,100070.25
2022-11-07T00:21:13.471Z,100067.8
2022-11-07T00:23:18.296Z,100074.56
2022-11-07T00:25:22.669Z,100074.93
2022-11-07T00:27:27.161Z,100074.73
2022-11-07T00:29:31.878Z,100075.34
2022-11-07T00:31:36.209Z,100077.58
2022-11-07T00:33:40.531Z,100076.13
2022-11-07T00:35:44.906Z,100071.95
2022-11-07T00:37:49.269Z,100076.36
2022-11-07T00:39:54.170Z,100077.28
2022-11-07T00:41:58.617Z,100071.78
2022-11-07T00:44:02.966Z,100071.95
2022-11-07T00:46:07.384Z,100070.66
2022-11-07T00:48:11.718Z,100070.66
2022-11-07T00:50:16.093Z,100069.2
2022-11-07T00:52:20.427Z,100071.44
2022-11-07T00:54:24.777Z,100060.61
2022-11-07T00:56:29.142Z,100059.45
2022-11-07T00:58:33.471Z,100060.41
2022-11-07T01:00:37.848Z,100055.18
2022-11-07T01:02:42.539Z,100051.07
2022-11-07T01:04:47.171Z,100047.7
2022-11-07T01:06:51.508Z,100053.45
2022-11-07T01:08:56.020Z,100049.84
2022-11-07T01:11:00.332Z,100041.39
2022-11-07T01:13:04.701Z,100034.13
2022-11-07T01:15:09.057Z,100025.98
2022-11-07T01:17:13.390Z,100033.92
2022-11-07T01:19:17.756Z,100018.72
2022-11-07T01:21:22.107Z,100022.52
2022-11-07T01:23:26.525Z,100018.78
2022-11-07T01:25:30.946Z,100017.56
2022-11-07T01:27:35.264Z,100014.41
2022-11-07T01:29:39.607Z,100020.11
2022-11-07T01:31:43.965Z,100019.56
2022-11-07T01:33:48.340Z,100011.08
2022-11-07T01:35:52.712Z,100007.31
2022-11-07T01:37:57.019Z,99992.95
2022-11-07T01:40:01.341Z,99991.83
2022-11-07T01:42:05.659Z,99986.7
2022-11-07T01:44:10.027Z,99990.81
2022-11-07T01:46:14.335Z,99983.11
2022-11-07T01:48:18.595Z,99988.23
2022-11-07T01:50:25.723Z,99992.34
2022-11-07T01:52:30.049Z,99982.06
2022-11-07T01:54:34.385Z,99981.28
2022-11-07T01:56:38.654Z,99979.72
2022-11-07T01:58:43.075Z,99989.67
2022-11-07T02:00:47.379Z,99981.25
2022-11-07T02:02:52.017Z,99974.05
2022-11-07T02:04:56.592Z,99980.98
2022-11-07T02:07:00.878Z,99972.36
2022-11-07T02:09:05.580Z,99971.86
2022-11-07T02:11:09.894Z,99966.22
2022-11-07T02:13:15.013Z,99955.88
2022-11-07T02:15:20.298Z,99950.11
2022-11-07T02:17:24.608Z,99945.73
2022-11-07T02:19:28.883Z,99945.25
2022-11-07T02:21:33.218Z,99943.52
2022-11-07T02:23:37.502Z,99944.74
2022-11-07T02:25:41.780Z,99945.63
2022-11-07T02:27:46.098Z,99943.93
2022-11-07T02:29:50.383Z,99948.3
2022-11-07T02:31:54.687Z,99954.95
2022-11-07T02:33:59.010Z,99955.61
2022-11-07T02:36:03.328Z,99965.52
2022-11-07T02:38:07.634Z,99969.93
2022-11-07T02:40:11.912Z,99969.63
2022-11-07T02:42:16.233Z,99969.66
2022-11-07T02:44:20.540Z,99964.36
2022-11-07T02:46:24.793Z,99964.47
2022-11-07T02:48:29.099Z,99956.29
2022-11-07T02:50:33.407Z,99958.19
2022-11-07T02:52:37.863Z,99949.91
2022-11-07T02:54:42.183Z,99956.42
2022-11-07T02:56:46.539Z,99951.61
2022-11-07T02:58:50.850Z,99951.61
2022-11-07T03:00:55.165Z,99953.2
2022-11-07T03:02:59.612Z,99950.66
2022-11-07T03:05:03.927Z,99951.54
2022-11-07T03:07:08.392Z,99955.11
2022-11-07T03:09:12.683Z,99962.06
2022-11-07T03:11:16.968Z,99964.44
2022-11-07T03:13:21.297Z,99966.57
2022-11-07T03:15:25.570Z,99967.76
2022-11-07T03:17:29.866Z,99972.23
2022-11-07T03:19:34.159Z,99976.2
2022-11-07T03:21:38.440Z,99980.72
2022-11-07T03:23:42.724Z,99981.63
2022-11-07T03:25:47.033Z,99984.66
2022-11-07T03:27:51.367Z,99980.62
2022-11-07T03:29:55.797Z,99982.55
2022-11-07T03:32:00.137Z,99990.28
2022-11-07T03:34:04.483Z,99995.47
2022-11-07T03:36:08.805Z,99990.22
2022-11-07T03:38:13.092Z,99995.3
2022-11-07T03:40:17.398Z,99996.46
2022-11-07T03:42:21.717Z,99995.84
2022-11-07T03:44:26.066Z,99998.42
2022-11-07T03:46:30.435Z,100002.13
2022-11-07T03:48:34.807Z,99999.13
2022-11-07T03:50:39.143Z,99998.08
2022-11-07T03:52:43.521Z,99997.3
2022-11-07T03:54:47.887Z,100004.05
2022-11-07T03:56:52.201Z,100004.43
2022-11-07T03:58:56.525Z,99997.51
2022-11-07T04:01:00.818Z,100000.7
2022-11-07T04:03:05.311Z,99992.48
2022-11-07T04:05:09.619Z,99995.06
2022-11-07T04:07:13.910Z,99996.72
2022-11-07T04:09:18.260Z,99999.74
2022-11-07T04:11:22.568Z,99999.74
2022-11-07T04:13:26.918Z,99996.41
2022-11-07T04:15:31.248Z,99998.75
2022-11-07T04:17:35.524Z,99998.38
2022-11-07T04:19:39.836Z,99994.58
2022-11-07T04:21:44.125Z,99991.46
2022-11-07T04:23:48.425Z,99993.05
2022-11-07T04:25:52.722Z,99987.22
2022-11-07T04:27:57.014Z,99987.48
2022-11-07T04:30:01.307Z,99984
2022-11-07T04:32:05.615Z,99986.41
2022-11-07T04:34:09.908Z,99989.32
2022-11-07T04:36:14.226Z,99983.19
2022-11-07T04:38:18.494Z,99981.86
2022-11-07T04:40:22.770Z,99987.39
2022-11-07T04:42:27.071Z,99987.89
2022-11-07T04:44:31.385Z,99989.9
2022-11-07T04:46:35.713Z,99991.94
2022-11-07T04:48:40.026Z,99995.33
2022-11-07T04:50:44.381Z,99987.12
2022-11-07T04:52:48.671Z,99988.84
2022-11-07T04:54:53.015Z,99997.63
2022-11-07T04:56:57.326Z,99991.13
2022-11-07T04:59:01.604Z,99990.98
2022-11-07T05:01:05.885Z,99981.52
2022-11-07T05:03:10.372Z,99972.73
2022-11-07T05:05:15.034Z,99975.59
2022-11-07T05:07:19.341Z,99976.91
2022-11-07T05:09:23.606Z,99972.27
2022-11-07T05:11:28.242Z,99969.14
2022-11-07T05:13:32.523Z,99954.19
2022-11-07T05:15:36.831Z,99948.45
2022-11-07T05:17:41.145Z,99969.62
2022-11-07T05:19:45.458Z,99989.9
2022-11-07T05:21:49.782Z,99994.14
2022-11-07T05:23:54.494Z,99988.64
2022-11-07T05:25:58.813Z,99992.64
2022-11-07T05:28:03.153Z,99997.16
2022-11-07T05:30:07.450Z,99999.22
2022-11-07T05:32:11.748Z,99998.23
2022-11-07T05:34:16.156Z,99999.91
2022-11-07T05:36:20.491Z,99997.7
2022-11-07T05:38:24.863Z,99994.34
2022-11-07T05:40:29.144Z,99996.44
2022-11-07T05:42:33.456Z,99996.14
2022-11-07T05:44:37.775Z,100004.85
2022-11-07T05:46:42.237Z,100014.83
2022-11-07T05:48:46.568Z,100016.02
2022-11-07T05:50:50.926Z,100022.56
2022-11-07T05:52:55.512Z,100023.88
2022-11-07T05:55:00.022Z,100021.88
2022-11-07T05:57:04.376Z,100023.14
2022-11-07T05:59:08.786Z,100025.75
2022-11-07T06:01:13.092Z,100026.13
2022-11-07T06:03:18.649Z,100026.3
2022-11-07T06:05:25.493Z,100028.91
2022-11-07T06:07:29.869Z,100036.7
2022-11-07T06:09:34.206Z,100041.25
2022-11-07T06:11:38.545Z,100048.38
2022-11-07T06:13:42.874Z,100044.52
2022-11-07T06:15:47.193Z,100045.38
2022-11-07T06:17:51.585Z,100045.8
2022-11-07T06:19:55.904Z,100053.13
2022-11-07T06:22:00.256Z,100058.43
2022-11-07T06:24:04.703Z,100058.2
2022-11-07T06:26:09.043Z,100061.73
2022-11-07T06:28:13.418Z,100056.88
2022-11-07T06:30:17.778Z,100059.08
2022-11-07T06:32:22.177Z,100062.84
2022-11-07T06:34:26.547Z,100073.2
2022-11-07T06:36:30.908Z,100074.08
2022-11-07T06:38:35.258Z,100084.33
2022-11-07T06:40:39.597Z,100085.45
2022-11-07T06:42:43.992Z,100089.31
2022-11-07T06:44:48.314Z,100093.72
2022-11-07T06:46:52.646Z,100092.45
2022-11-07T06:48:57.010Z,100089.53
2022-11-07T06:51:01.403Z,100093.7
2022-11-07T06:53:05.787Z,100099.38
2022-11-07T06:55:10.174Z,100096.96
2022-11-07T06:57:14.621Z,100096.28
2022-11-07T06:59:19.047Z,100100.69
2022-11-07T07:01:23.764Z,100100.81
2022-11-07T07:03:28.487Z,100103.09
2022-11-07T07:05:32.845Z,100104.36
2022-11-07T07:07:37.274Z,100101.95
2022-11-07T07:09:41.711Z,100108.53
2022-11-07T07:11:46.051Z,100111.38
2022-11-07T07:13:50.653Z,100118.13
2022-11-07T07:15:55.009Z,100116.16
2022-11-07T07:17:59.452Z,100122.73
2022-11-07T07:20:04.320Z,100127.59
2022-11-07T07:22:08.789Z,100132.28
2022-11-07T07:24:13.191Z,100127.92
2022-11-07T07:26:17.575Z,100135.94
2022-11-07T07:28:21.938Z,100140.02
2022-11-07T07:30:26.303Z,100142.97
2022-11-07T07:32:30.653Z,100145.55
2022-11-07T07:34:35.014Z,100145.09
2022-11-07T07:36:39.386Z,100153.16
2022-11-07T07:38:43.754Z,100149.31
2022-11-07T07:40:48.226Z,100160.59
2022-11-07T07:42:52.582Z,100154.23
2022-11-07T07:44:56.951Z,100158.97
2022-11-07T07:47:01.378Z,100159.61
2022-11-07T07:49:11.854Z,100164.88
2022-11-07T07:51:16.217Z,100166.14
2022-11-07T07:53:20.704Z,100170.86
2022-11-07T07:55:25.074Z,100174.26
2022-11-07T07:57:29.388Z,100178.48
2022-11-07T07:59:33.795Z,100176.81
2022-11-07T08:01:38.535Z,100179.94
2022-11-07T08:04:02.668Z,100184.29
2022-11-07T08:06:07.304Z,100180.78
2022-11-07T08:08:11.655Z,100179.52
2022-11-07T08:10:42.963Z,100184.52
2022-11-07T08:12:47.565Z,100179.63
2022-11-07T08:14:52.019Z,100181.86
2022-11-07T08:16:56.515Z,100187.91
2022-11-07T08:19:00.908Z,100185.26
2022-11-07T08:21:05.420Z,100191.31
2022-11-07T08:23:17.174Z,100193.45
2022-11-07T08:25:22.123Z,100192.41
2022-11-07T08:27:26.485Z,100199
2022-11-07T08:29:30.878Z,100198.45
2022-11-07T08:31:35.269Z,100207.91
2022-11-07T08:33:39.820Z,100202.16
2022-11-07T08:35:44.322Z,100200.7
2022-11-07T08:37:48.692Z,100204.4
2022-11-07T08:39:53.256Z,100204.37
2022-11-07T08:41:57.678Z,100206.41
2022-11-07T08:44:02.015Z,100208.86
2022-11-07T08:46:06.405Z,100212.22
2022-11-07T08:48:10.747Z,100220.19
2022-11-07T08:50:15.188Z,100213.75
2022-11-07T08:52:19.546Z,100221.78
2022-11-07T08:54:23.917Z,100221.67
2022-11-07T08:56:28.292Z,100223.2
2022-11-07T08:58:32.699Z,100227.86
2022-11-07T09:00:37.214Z,100223.95
2022-11-07T09:03:43.884Z,100222.78
2022-11-07T09:05:54.252Z,100226.15
2022-11-07T09:07:58.610Z,100225.8
2022-11-07T09:10:03.107Z,100225.87
2022-11-07T09:12:07.531Z,100224.7
2022-11-07T09:14:11.886Z,100224.29
2022-11-07T09:16:16.307Z,100221.84
2022-11-07T09:18:20.915Z,100229.45
2022-11-07T09:20:25.313Z,100229.16
2022-11-07T09:22:29.679Z,100229.78
2022-11-07T09:24:34.020Z,100224.13
2022-11-07T09:26:38.412Z,100235.46
2022-11-07T09:28:51.037Z,100233.08
2022-11-07T09:31:00.850Z,100238.77
2022-11-07T09:33:05.235Z,100238.53
2022-11-07T09:35:09.718Z,100235.73
2022-11-07T09:37:14.081Z,100240.5
2022-11-07T09:39:18.448Z,100235.97
2022-11-07T09:41:22.787Z,100233.56
2022-11-07T09:43:27.149Z,100230.19
2022-11-07T09:45:31.580Z,100231.95
2022-11-07T09:47:35.949Z,100231.17
2022-11-07T09:49:40.304Z,100233.02
2022-11-07T09:51:44.689Z,100233.22
2022-11-07T09:53:49.101Z,100236.04
2022-11-07T09:55:53.493Z,100230.22
2022-11-07T09:57:57.872Z,100227.47
2022-11-07T10:00:02.230Z,100227.05
2022-11-07T10:02:06.745Z,100224.33
2022-11-07T10:04:27.788Z,100223.61
2022-11-07T10:06:32.345Z,100219.6
2022-11-07T10:08:36.701Z,100217.11
2022-11-07T10:10:41.057Z,100218.58
2022-11-07T10:12:46.183Z,100224.46
2022-11-07T10:14:50.535Z,100222.76
2022-11-07T10:16:54.981Z,100221.5
2022-11-07T10:18:59.390Z,100226.7
2022-11-07T10:21:38.635Z,100226.26
2022-11-07T10:23:43.418Z,100231.43
2022-11-07T10:25:48.011Z,100233.88
2022-11-07T10:27:52.405Z,100224.69
2022-11-07T10:29:56.806Z,100225.6
2022-11-07T10:32:01.154Z,100223.12
2022-11-07T10:34:05.537Z,100222.95
2022-11-07T10:36:09.887Z,100226.72
2022-11-07T10:38:14.228Z,100226.03
2022-11-07T10:40:18.646Z,100228.41
2022-11-07T10:42:23.077Z,100232.56
2022-11-07T10:44:27.568Z,100230.96
2022-11-07T10:46:31.911Z,100226.16
2022-11-07T10:48:36.305Z,100228.17
2022-11-07T10:50:40.696Z,100227.97
2022-11-07T10:52:45.067Z,100225
2022-11-07T10:54:49.438Z,100227.69
2022-11-07T10:56:53.799Z,100224.16
2022-11-07T10:58:58.179Z,100228.51
2022-11-07T11:01:02.714Z,100218.16
2022-11-07T11:03:07.263Z,100219.28
2022-11-07T11:05:11.736Z,100217.98
2022-11-07T11:07:16.112Z,100215.09
2022-11-07T11:09:20.448Z,100219.78
2022-11-07T11:11:24.858Z,100216.95
2022-11-07T11:13:29.230Z,100214.13
2022-11-07T11:15:36.881Z,100214.17
2022-11-07T11:17:41.260Z,100212.77
2022-11-07T11:19:45.822Z,100210.86
2022-11-07T11:21:50.248Z,100212.77
2022-11-07T11:23:54.618Z,100213.42
2022-11-07T11:25:58.976Z,100214.13
2022-11-07T11:28:03.322Z,100209.47
2022-11-07T11:30:07.815Z,100213.05
2022-11-07T11:32:12.486Z,100212.33
2022-11-07T11:34:16.818Z,100215.53
2022-11-07T11:36:21.157Z,100213.81
2022-11-07T11:38:25.535Z,100213.54
2022-11-07T11:40:32.908Z,100213.88
2022-11-07T11:42:37.270Z,100213.64
2022-11-07T11:44:41.632Z,100215.03
2022-11-07T11:46:45.976Z,100220.27
2022-11-07T11:48:50.344Z,100215.47
2022-11-07T11:50:54.703Z,100215.55
2022-11-07T11:52:59.063Z,100209.25
2022-11-07T11:55:03.419Z,100211.59
2022-11-07T11:57:07.771Z,100207.67
2022-11-07T11:59:12.126Z,100205.91
2022-11-07T12:01:16.650Z,100198.83
2022-11-07T12:03:21.321Z,100197.53
2022-11-07T12:05:25.716Z,100198.18
2022-11-07T12:07:30.097Z,100196.41
2022-11-07T12:09:34.682Z,100195.8
2022-11-07T12:11:39.081Z,100192.8
2022-11-07T12:13:43.477Z,100186.8
2022-11-07T12:15:47.878Z,100183.83
2022-11-07T12:17:52.272Z,100183.12
2022-11-07T12:19:56.713Z,100182.78
2022-11-07T12:22:01.206Z,100183.31
2022-11-07T12:24:05.625Z,100190.81
2022-11-07T12:26:10.166Z,100187.03
2022-11-07T12:28:14.676Z,100189.61
2022-11-07T12:30:19.285Z,100190.3
2022-11-07T12:32:23.663Z,100190.19
2022-11-07T12:34:28.067Z,100189.38
2022-11-07T12:36:32.395Z,100192.95
2022-11-07T12:38:36.816Z,100187.67
2022-11-07T12:40:41.191Z,100193.25
2022-11-07T12:42:46.468Z,100186.07
2022-11-07T12:44:50.945Z,100188.97
2022-11-07T12:46:55.357Z,100190.27
2022-11-07T12:48:59.715Z,100190.3
2022-11-07T12:51:04.128Z,100194.89
2022-11-07T12:53:08.443Z,100196.35
2022-11-07T12:55:12.797Z,100196.86
2022-11-07T12:57:17.170Z,100196.25
2022-11-07T12:59:21.523Z,100196.39
2022-11-07T13:01:26.220Z,100192.2
2022-11-07T13:03:30.897Z,100191.18
2022-11-07T13:05:35.315Z,100198.57
2022-11-07T13:07:39.653Z,100196.97
2022-11-07T13:09:44.011Z,100195.85
2022-11-07T13:11:48.395Z,100199.33
2022-11-07T13:13:52.712Z,100197.31
2022-11-07T13:16:27.131Z,100201.13
2022-11-07T13:18:31.641Z,100196.67
2022-11-07T13:20:36.123Z,100191.33
2022-11-07T13:22:40.482Z,100193.64
2022-11-07T13:24:44.851Z,100193.3
2022-11-07T13:26:49.621Z,100198.7
2022-11-07T13:28:53.934Z,100197.25
2022-11-07T13:31:00.232Z,100201.57
2022-11-07T13:33:11.169Z,100201.13
2022-11-07T13:35:15.584Z,100221.08
2022-11-07T13:37:19.960Z,100200.31
2022-11-07T13:39:24.315Z,100200.98
2022-11-07T13:41:28.703Z,100204.46
2022-11-07T13:43:33.055Z,100203.39
2022-11-07T13:45:37.514Z,100202.39
2022-11-07T13:47:41.896Z,100202.05
2022-11-07T13:49:46.349Z,100201.98
2022-11-07T13:51:50.771Z,100203.8
2022-11-07T13:53:55.143Z,100206.28
2022-11-07T13:55:59.552Z,100205.67
2022-11-07T13:58:03.930Z,100206.76
2022-11-07T14:00:08.666Z,100202.74
2022-11-07T14:02:13.439Z,100204.23
2022-11-07T14:04:18.075Z,100204.98
2022-11-07T14:06:22.475Z,100207.36
2022-11-07T14:08:26.811Z,100206.02
2022-11-07T14:10:31.195Z,100206.39
2022-11-07T14:12:35.558Z,100201.05
2022-11-07T14:14:39.937Z,100197.27
2022-11-07T14:16:45.899Z,100200.7
2022-11-07T14:18:50.351Z,100200.6
2022-11-07T14:20:54.895Z,100205.5
2022-11-07T14:22:59.337Z,100210.67
2022-11-07T14:25:03.695Z,100206.14
2022-11-07T14:27:08.050Z,100207.14
2022-11-07T14:29:12.451Z,100211.3
2022-11-07T14:31:16.827Z,100209.32
2022-11-07T14:33:21.202Z,100209.59
2022-11-07T14:35:25.556Z,100211.91
2022-11-07T14:37:30.715Z,100212.48
2022-11-07T14:39:35.122Z,100213.09
2022-11-07T14:41:39.460Z,100215.37
2022-11-07T14:43:43.851Z,100219.41
2022-11-07T14:46:13.835Z,100219.65
2022-11-07T14:48:19.847Z,100216.61
2022-11-07T14:50:24.396Z,100222.63
2022-11-07T14:52:28.780Z,100217.83
2022-11-07T14:54:33.182Z,100216.66
2022-11-07T14:56:37.624Z,100215.61
2022-11-07T14:58:41.981Z,100217.78
2022-11-07T15:00:46.384Z,100218.31
2022-11-07T15:02:51.051Z,100215.94
2022-11-07T15:05:09.875Z,100216.61
2022-11-07T15:07:15.463Z,100215.13
2022-11-07T15:09:19.832Z,100214.73
2022-11-07T15:11:24.233Z,100220.27
2022-11-07T15:13:28.605Z,100219.88
2022-11-07T15:15:32.983Z,100226.59
2022-11-07T15:17:41.161Z,100227.97
2022-11-07T15:19:45.515Z,100228.5
2022-11-07T15:21:49.995Z,100233.2
2022-11-07T15:23:54.385Z,100228.79
2022-11-07T15:25:58.734Z,100232.38
2022-11-07T15:28:03.236Z,100236.37
2022-11-07T15:30:07.578Z,100237.44
2022-11-07T15:32:11.992Z,100239.32
2022-11-07T15:34:25.258Z,100242.71
2022-11-07T15:37:04.243Z,100235.83
2022-11-07T15:39:08.605Z,100237.2
2022-11-07T15:41:12.965Z,100233.84
2022-11-07T15:43:17.400Z,100231.28
2022-11-07T15:45:21.747Z,100231.71
2022-11-07T15:47:26.100Z,100233.31
2022-11-07T15:49:30.589Z,100238.76
2022-11-07T15:51:34.932Z,100236.84
2022-11-07T15:53:39.328Z,100237.36
2022-11-07T15:55:43.716Z,100235.02
2022-11-07T15:57:48.079Z,100235.5
2022-11-07T15:59:52.436Z,100232.09
2022-11-07T16:01:57.172Z,100228.64
2022-11-07T16:04:02.012Z,100232.13
2022-11-07T16:06:06.426Z,100234.2
2022-11-07T16:08:11.389Z,100232.97
2022-11-07T16:10:15.787Z,100233.16
2022-11-07T16:12:20.165Z,100235.41
2022-11-07T16:14:45.004Z,100232.27
2022-11-07T16:16:49.493Z,100237.52
2022-11-07T16:18:53.891Z,100242.34
2022-11-07T16:20:58.258Z,100237.3
2022-11-07T16:23:02.616Z,100229.65
2022-11-07T16:25:21.288Z,100228.2
2022-11-07T16:27:26.233Z,100233.23
2022-11-07T16:29:30.627Z,100239.64
2022-11-07T16:31:35.012Z,100241.34
2022-11-07T16:33:39.394Z,100238.09
2022-11-07T16:35:43.777Z,100244.63
2022-11-07T16:37:48.130Z,100243.39
2022-11-07T16:39:52.521Z,100247.44
2022-11-07T16:41:56.856Z,100248.79
2022-11-07T16:44:01.374Z,100245.48
2022-11-07T16:46:05.895Z,100239.06
2022-11-07T16:48:10.250Z,100239.87
2022-11-07T16:50:14.625Z,100235.4
2022-11-07T16:52:18.998Z,100239.55
2022-11-07T16:54:23.354Z,100246.86
2022-11-07T16:56:27.746Z,100241.05
2022-11-07T16:58:32.114Z,100249.8
2022-11-07T17:00:36.515Z,100250.42
2022-11-07T17:02:41.016Z,100251.44
2022-11-07T17:04:45.637Z,100253.59
2022-11-07T17:06:50.011Z,100259.55
2022-11-07T17:08:57.016Z,100252.43
2022-11-07T17:11:13.893Z,100254.05
2022-11-07T17:13:18.226Z,100252.02
2022-11-07T17:15:22.611Z,100251.29
2022-11-07T17:17:27.015Z,100255.63
2022-11-07T17:19:31.361Z,100252.64
2022-11-07T17:21:35.755Z,100251.7
2022-11-07T17:23:40.127Z,100257.68
2022-11-07T17:25:44.528Z,100253.97
2022-11-07T17:27:48.882Z,100255.53
2022-11-07T17:29:53.260Z,100251.98
2022-11-07T17:31:57.857Z,100252.53
2022-11-07T17:34:02.220Z,100252.33
2022-11-07T17:36:06.611Z,100253.18
2022-11-07T17:38:10.998Z,100251.18
2022-11-07T17:40:15.349Z,100251.68
2022-11-07T17:42:19.753Z,100256.77
2022-11-07T17:44:24.135Z,100252.59
2022-11-07T17:46:28.549Z,100252.2
2022-11-07T17:48:32.933Z,100250.03
2022-11-07T17:50:37.320Z,100248.73
2022-11-07T17:52:41.701Z,100247.83
2022-11-07T17:54:46.070Z,100250.91
2022-11-07T17:56:50.451Z,100250.98
2022-11-07T17:58:54.843Z,100251.52
2022-11-07T18:00:59.275Z,100257.54
2022-11-07T18:03:04.056Z,100267.32
2022-11-07T18:05:08.695Z,100264.34
2022-11-07T18:07:13.096Z,100260.27
2022-11-07T18:09:17.498Z,100257.68
2022-11-07T18:11:21.905Z,100259.7
2022-11-07T18:13:26.374Z,100263.9
2022-11-07T18:15:30.823Z,100264.27
2022-11-07T18:17:35.185Z,100262.16
2022-11-07T18:19:39.532Z,100262.11
2022-11-07T18:21:43.896Z,100268.14
2022-11-07T18:23:48.317Z,100270.02
2022-11-07T18:25:52.704Z,100270.45
2022-11-07T18:27:57.070Z,100265.68
2022-11-07T18:30:03.052Z,100266.27
2022-11-07T18:32:07.917Z,100262.8
2022-11-07T18:34:12.282Z,100262.31
2022-11-07T18:36:16.706Z,100262.88
2022-11-07T18:38:21.154Z,100263.03
2022-11-07T18:40:25.557Z,100261.31
2022-11-07T18:42:29.965Z,100259.45
2022-11-07T18:44:34.364Z,100266.01
2022-11-07T18:46:38.703Z,100269.5
2022-11-07T18:48:43.115Z,100271.38
2022-11-07T18:50:47.448Z,100275.45
2022-11-07T18:52:51.843Z,100271.92
2022-11-07T18:54:56.243Z,100268.64
2022-11-07T18:57:00.703Z,100270.75
2022-11-07T18:59:05.178Z,100270.38
2022-11-07T19:01:09.684Z,100275.13
2022-11-07T19:03:14.824Z,100275.74
2022-11-07T19:05:19.822Z,100281.06
2022-11-07T19:07:24.200Z,100276.36
2022-11-07T19:09:28.554Z,100277.08
2022-11-07T19:11:32.894Z,100281.52
2022-11-07T19:13:37.273Z,100276.16
2022-11-07T19:15:41.656Z,100278.21
2022-11-07T19:17:46.025Z,100274.77
2022-11-07T19:19:50.456Z,100284.33
2022-11-07T19:21:54.834Z,100285.78
2022-11-07T19:23:59.239Z,100281.75
2022-11-07T19:26:03.645Z,100280.45
2022-11-07T19:28:08.068Z,100282.01
2022-11-07T19:30:12.760Z,100274.33
2022-11-07T19:32:17.356Z,100277.82
2022-11-07T19:34:21.757Z,100279.7
2022-11-07T19:36:26.177Z,100279.84
2022-11-07T19:38:30.596Z,100281.21
2022-11-07T19:40:35.046Z,100284.38
2022-11-07T19:42:39.480Z,100288.06
2022-11-07T19:44:54.109Z,100295.22
2022-11-07T19:47:00.942Z,100296.17
2022-11-07T19:49:05.735Z,100293.11
2022-11-07T19:51:10.210Z,100296.77
2022-11-07T19:53:15.332Z,100293.56
2022-11-07T19:55:20.554Z,100295.43
2022-11-07T19:57:24.990Z,100293.63
2022-11-07T19:59:29.365Z,100293.27
2022-11-07T20:01:34.135Z,100291.05
2022-11-07T20:03:39.193Z,100297.41
2022-11-07T20:05:43.791Z,100302.19
2022-11-07T20:07:56.250Z,100301.8
2022-11-07T20:10:07.259Z,100299.86
2022-11-07T20:12:11.656Z,100297.13
2022-11-07T20:14:16.075Z,100296.35
2022-11-07T20:16:20.437Z,100293.77
2022-11-07T20:18:24.857Z,100297.81
2022-11-07T20:20:29.232Z,100298.05
2022-11-07T20:22:33.608Z,100298.77
2022-11-07T20:24:37.952Z,100301.58
2022-11-07T20:26:42.327Z,100299.98
2022-11-07T20:28:46.711Z,100299.13
2022-11-07T20:30:51.143Z,100301.32
2022-11-07T20:32:55.569Z,100305.55
2022-11-07T20:34:59.968Z,100302.8
2022-11-07T20:37:04.319Z,100302.34
2022-11-07T20:39:08.704Z,100306.69
2022-11-07T20:41:13.114Z,100307.4
2022-11-07T20:43:18.284Z,100304.14
2022-11-07T20:45:23.274Z,100303.69
2022-11-07T20:47:27.654Z,100302.97
2022-11-07T20:49:32.022Z,100306.34
2022-11-07T20:51:36.391Z,100308.7
2022-11-07T20:53:43.232Z,100306.63
2022-11-07T20:55:53.839Z,100305.8
2022-11-07T20:57:58.224Z,100308.32
2022-11-07T21:00:02.655Z,100306.66
2022-11-07T21:02:07.321Z,100306.28
2022-11-07T21:04:11.916Z,100305.46
2022-11-07T21:06:16.321Z,100308.48
2022-11-07T21:08:20.898Z,100308.48
2022-11-07T21:10:25.373Z,100306.34
2022-11-07T21:12:29.824Z,100315.23
2022-11-07T21:14:34.202Z,100314.02
2022-11-07T21:16:38.609Z,100316.02
2022-11-07T21:18:43.002Z,100312.18
2022-11-07T21:20:47.394Z,100313.73
2022-11-07T21:22:51.766Z,100312.2
2022-11-07T21:24:56.183Z,100315.73
2022-11-07T21:27:00.565Z,100310.26
2022-11-07T21:29:04.904Z,100310.39
2022-11-07T21:31:09.273Z,100311.59
2022-11-07T21:33:13.832Z,100308.69
2022-11-07T21:35:18.922Z,100308.75
2022-11-07T21:37:23.304Z,100306.59
2022-11-07T21:39:27.647Z,100307.91
2022-11-07T21:41:31.968Z,100303.84
2022-11-07T21:43:36.352Z,100304.73
2022-11-07T21:45:40.747Z,100306.91
2022-11-07T21:47:47.156Z,100306.54
2022-11-07T21:49:51.509Z,100315.33
2022-11-07T21:51:55.868Z,100314.98
2022-11-07T21:54:00.267Z,100310.8
2022-11-07T21:56:04.628Z,100307.45
2022-11-07T21:58:09.032Z,100308.34
2022-11-07T22:00:13.359Z,100307.59
2022-11-07T22:02:17.857Z,100302.25
2022-11-07T22:04:22.385Z,100303.44
2022-11-07T22:06:26.749Z,100300.28
2022-11-07T22:08:31.132Z,100301.06
2022-11-07T22:10:35.543Z,100302.73
2022-11-07T22:12:40.050Z,100302.53
2022-11-07T22:14:44.407Z,100302.43
2022-11-07T22:16:48.954Z,100305.53
2022-11-07T22:18:53.289Z,100298.48
2022-11-07T22:20:57.667Z,100299
2022-11-07T22:23:02.079Z,100299.99
2022-11-07T22:25:06.475Z,100296.97
2022-11-07T22:27:10.845Z,100303.47
2022-11-07T22:29:15.190Z,100304.05
2022-11-07T22:31:19.589Z,100305.48
2022-11-07T22:33:23.997Z,100302.31
2022-11-07T22:35:28.359Z,100308.59
2022-11-07T22:37:32.709Z,100302.13
2022-11-07T22:39:37.073Z,100306.49
2022-11-07T22:41:41.437Z,100310.19
2022-11-07T22:43:45.816Z,100315
2022-11-07T22:45:50.234Z,100309.28
2022-11-07T22:47:54.639Z,100309.94
2022-11-07T22:49:59.019Z,100315.55
2022-11-07T22:52:03.360Z,100315.09
2022-11-07T22:54:07.764Z,100311.31
2022-11-07T22:56:12.092Z,100314.63
2022-11-07T22:58:17.316Z,100313.71
2022-11-07T23:00:23.194Z,100309.16
2022-11-07T23:02:28.080Z,100310.56
2022-11-07T23:04:34.198Z,100307.91
2022-11-07T23:06:38.710Z,100309.41
2022-11-07T23:08:43.077Z,100310.43
2022-11-07T23:10:47.438Z,100309.04
2022-11-07T23:12:51.787Z,100307.2
2022-11-07T23:14:56.134Z,100307.61
2022-11-07T23:17:00.536Z,100310.48
2022-11-07T23:19:04.931Z,100310.55
2022-11-07T23:21:09.324Z,100306.4
2022-11-07T23:23:13.679Z,100313.11
2022-11-07T23:25:18.026Z,100309.37
2022-11-07T23:27:22.418Z,100313.66
2022-11-07T23:29:26.859Z,100311.98
2022-11-07T23:31:31.262Z,100315.02
2022-11-07T23:33:35.698Z,100314.65
2022-11-07T23:35:40.048Z,100309.78
2022-11-07T23:37:44.432Z,100315.16
2022-11-07T23:39:48.878Z,100317.48
2022-11-07T23:41:53.276Z,100318.17
2022-11-07T23:43:57.624Z,100322.87
2022-11-07T23:46:01.965Z,100320.34
2022-11-07T23:48:06.327Z,100318.81
2022-11-07T23:50:10.723Z,100314.63
2022-11-07T23:52:15.057Z,100314.02
2022-11-07T23:54:19.428Z,100316.38
2022-11-07T23:56:23.772Z,100311.44